Time;durP1;ratioP1;P1;durP2;ratioP2;P2;SDS_P1;SDS_P2;PMS_P1;PMS_P2;Temp;Humidity;BMP_temperature;BMP_pressure;BME280_temperature;BME280_humidity;BME280_pressure;Samples;Min_cycle;Max_cycle;Signal;HPM_P1;HPM_P2
2023/11/09 00:01:48;;;;;;;14.98;9.43;;;;;;;;;;5052854;28;20041;-60
2023/11/09 00:04:15;;;;;;;14.23;8.88;;;;;;;;;;5046266;28;20507;-60
2023/11/09 00:06:42;;;;;;;13.85;9.20;;;;;;;;;;5054832;28;20472;-60
2023/11/09 00:09:08;;;;;;;12.77;9.73;;;;;;;;;;5049838;28;20353;-60
2023/11/09 00:11:35;;;;;;;12.68;9.15;;;;;;;;;;5054043;28;20456;-60
2023/11/09 00:14:04;;;;;;;12.00;8.55;;;;;;;;;;5060000;28;20033;-60
2023/11/09 00:16:31;;;;;;;14.75;9.40;;;;;;;;;;5045723;28;20114;-60
2023/11/09 00:18:57;;;;;;;11.68;8.43;;;;;;;;;;5061655;28;20076;-60
2023/11/09 00:21:23;;;;;;;13.82;8.18;;;;;;;;;;5038889;28;20052;-60
2023/11/09 00:23:50;;;;;;;12.48;8.40;;;;;;;;;;5055433;28;20040;-60
2023/11/09 00:26:16;;;;;;;11.30;7.95;;;;;;;;;;5053397;28;20132;-60
2023/11/09 00:28:42;;;;;;;13.00;8.88;;;;;;;;;;5060766;28;20390;-60
2023/11/09 00:31:08;;;;;;;11.13;8.40;;;;;;;;;;5057206;28;20044;-60
2023/11/09 00:33:35;;;;;;;12.13;8.23;;;;;;;;;;5059191;28;20458;-60
2023/11/09 00:36:01;;;;;;;12.23;8.55;;;;;;;;;;5056612;28;20047;-60
2023/11/09 00:38:27;;;;;;;11.57;8.15;;;;;;;;;;5057246;28;20120;-60
2023/11/09 00:40:53;;;;;;;15.80;8.07;;;;;;;;;;5061564;28;20041;-60
2023/11/09 00:43:20;;;;;;;15.52;8.70;;;;;;;;;;5045837;28;20333;-60
2023/11/09 00:45:46;;;;;;;14.95;9.70;;;;;;;;;;5046797;28;20037;-60
2023/11/09 00:48:12;;;;;;;18.92;10.80;;;;;;;;;;5048752;28;20493;-60
2023/11/09 00:50:38;;;;;;;16.70;11.35;;;;;;;;;;5043844;28;20474;-60
2023/11/09 00:53:05;;;;;;;9.82;7.22;;;;;;;;;;5044802;28;20127;-60
2023/11/09 00:55:31;;;;;;;12.48;6.95;;;;;;;;;;5043474;28;20037;-60
2023/11/09 00:57:57;;;;;;;9.95;6.15;;;;;;;;;;5042767;28;20041;-60
2023/11/09 01:00:23;;;;;;;14.32;6.60;;;;;;;;;;5040452;28;20041;-60
2023/11/09 01:02:51;;;;;;;9.18;4.00;;;;;;;;;;5046816;28;20632;-60
2023/11/09 01:05:17;;;;;;;10.15;4.00;;;;;;;;;;5038287;28;20049;-60
2023/11/09 01:07:43;;;;;;;15.07;5.10;;;;;;;;;;5037593;28;20103;-60
2023/11/09 01:10:09;;;;;;;14.98;3.80;;;;;;;;;;5045042;28;20453;-60
2023/11/09 01:12:36;;;;;;;22.35;4.28;;;;;;;;;;5048765;28;20480;-60
2023/11/09 01:15:02;;;;;;;25.85;4.22;;;;;;;;;;5047368;28;20129;-60
2023/11/09 01:17:28;;;;;;;33.65;4.88;;;;;;;;;;5043665;28;20099;-60
2023/11/09 01:19:54;;;;;;;23.70;4.00;;;;;;;;;;5042840;28;20121;-60
2023/11/09 01:22:20;;;;;;;22.40;3.75;;;;;;;;;;5047581;28;20123;-60
2023/11/09 01:24:47;;;;;;;34.85;4.95;;;;;;;;;;5046998;28;20044;-60
2023/11/09 01:27:13;;;;;;;22.38;3.40;;;;;;;;;;5048215;28;20112;-60
2023/11/09 01:29:39;;;;;;;22.35;3.80;;;;;;;;;;5049248;28;20463;-60
2023/11/09 01:32:06;;;;;;;29.45;3.63;;;;;;;;;;5052124;28;20112;-60
2023/11/09 01:34:32;;;;;;;28.63;4.35;;;;;;;;;;5046425;28;20128;-60
2023/11/09 01:36:58;;;;;;;32.95;5.25;;;;;;;;;;5051599;28;20121;-60
2023/11/09 01:39:24;;;;;;;32.78;3.80;;;;;;;;;;5052103;28;20045;-60
2023/11/09 01:41:50;;;;;;;37.15;4.32;;;;;;;;;;5049406;28;21387;-60
2023/11/09 01:44:17;;;;;;;28.70;4.10;;;;;;;;;;5051876;28;20488;-60
2023/11/09 01:46:44;;;;;;;26.58;6.20;;;;;;;;;;5050950;28;20045;-60
2023/11/09 01:49:11;;;;;;;32.92;4.72;;;;;;;;;;5050906;28;20049;-60
2023/11/09 01:51:37;;;;;;;29.05;5.70;;;;;;;;;;5051930;28;20119;-60
2023/11/09 01:54:04;;;;;;;33.53;4.78;;;;;;;;;;5050637;28;20097;-60
2023/11/09 01:56:30;;;;;;;27.90;5.57;;;;;;;;;;5049452;28;20049;-60
2023/11/09 01:58:57;;;;;;;26.08;5.13;;;;;;;;;;5052715;28;20531;-60
2023/11/09 02:01:25;;;;;;;41.42;4.82;;;;;;;;;;5051370;28;20489;-60
2023/11/09 02:03:52;;;;;;;36.55;5.35;;;;;;;;;;5051672;28;20059;-60
2023/11/09 02:06:18;;;;;;;29.60;5.43;;;;;;;;;;5052424;28;20132;-60
2023/11/09 02:08:47;;;;;;;25.83;5.18;;;;;;;;;;5051497;28;20045;-60
2023/11/09 02:11:14;;;;;;;25.65;4.97;;;;;;;;;;5052139;28;20048;-60
2023/11/09 02:13:41;;;;;;;24.45;5.63;;;;;;;;;;5051344;28;20500;-60
2023/11/09 02:16:07;;;;;;;34.78;6.60;;;;;;;;;;5050498;28;20120;-60
2023/11/09 02:18:34;;;;;;;28.98;5.32;;;;;;;;;;5050509;28;20120;-60
2023/11/09 02:21:00;;;;;;;28.70;6.03;;;;;;;;;;5045366;28;20045;-60
2023/11/09 02:23:32;;;;;;;48.42;7.78;;;;;;;;;;5046934;28;20053;-60
2023/11/09 02:25:58;;;;;;;36.58;5.97;;;;;;;;;;5053251;28;20073;-60
2023/11/09 02:28:24;;;;;;;38.88;6.00;;;;;;;;;;5049322;28;20041;-60
2023/11/09 02:30:51;;;;;;;36.38;5.80;;;;;;;;;;5051252;28;20132;-60
2023/11/09 02:33:17;;;;;;;24.58;5.85;;;;;;;;;;5016539;28;20040;-60
2023/11/09 02:35:43;;;;;;;30.85;5.78;;;;;;;;;;5050430;28;20127;-60
2023/11/09 02:38:10;;;;;;;43.95;7.72;;;;;;;;;;5051280;28;20040;-60
2023/11/09 02:40:36;;;;;;;38.75;7.00;;;;;;;;;;5049138;28;20071;-60
2023/11/09 02:43:03;;;;;;;45.97;9.23;;;;;;;;;;5051347;28;20128;-60
2023/11/09 02:45:29;;;;;;;25.50;6.63;;;;;;;;;;5044221;28;20528;-60
2023/11/09 02:47:56;;;;;;;85.57;9.57;;;;;;;;;;5044283;28;20040;-60
2023/11/09 02:50:22;;;;;;;43.50;6.25;;;;;;;;;;5043611;28;20092;-60
2023/11/09 02:52:49;;;;;;;63.20;7.78;;;;;;;;;;5043792;28;20045;-60
2023/11/09 02:55:21;;;;;;;40.35;7.15;;;;;;;;;;5041138;28;20064;-60
2023/11/09 02:57:47;;;;;;;81.40;10.20;;;;;;;;;;5049937;28;20041;-60
2023/11/09 03:00:13;;;;;;;52.97;7.82;;;;;;;;;;5050564;28;20132;-60
2023/11/09 03:02:40;;;;;;;22.58;6.45;;;;;;;;;;5050414;28;20053;-60
2023/11/09 03:05:06;;;;;;;32.58;6.68;;;;;;;;;;5050009;28;20089;-60
2023/11/09 03:07:32;;;;;;;33.25;7.20;;;;;;;;;;5049993;28;20052;-60
2023/11/09 03:09:59;;;;;;;32.80;7.30;;;;;;;;;;5052562;28;20045;-60
2023/11/09 03:12:26;;;;;;;43.22;7.90;;;;;;;;;;5051336;28;20081;-60
2023/11/09 03:14:53;;;;;;;33.03;7.57;;;;;;;;;;5049141;28;20500;-60
2023/11/09 03:17:22;;;;;;;32.42;6.45;;;;;;;;;;5049434;28;20071;-60
2023/11/09 03:19:48;;;;;;;33.00;7.05;;;;;;;;;;5045595;28;20128;-60
2023/11/09 03:22:14;;;;;;;43.42;7.38;;;;;;;;;;5050779;28;20539;-60
2023/11/09 03:24:41;;;;;;;34.40;7.57;;;;;;;;;;5047436;28;20127;-60
2023/11/09 03:27:09;;;;;;;27.58;6.60;;;;;;;;;;5050340;28;20040;-60
2023/11/09 03:29:36;;;;;;;40.45;7.00;;;;;;;;;;5022115;28;20521;-60
2023/11/09 03:32:03;;;;;;;34.33;7.35;;;;;;;;;;5042167;28;20076;-60
2023/11/09 03:34:29;;;;;;;42.10;6.80;;;;;;;;;;5040298;28;20049;-60
2023/11/09 03:36:55;;;;;;;40.10;8.20;;;;;;;;;;5037023;28;20047;-60
2023/11/09 03:39:21;;;;;;;30.48;6.53;;;;;;;;;;5038176;28;20121;-60
2023/11/09 03:41:51;;;;;;;27.17;5.63;;;;;;;;;;5028976;28;20103;-60
2023/11/09 03:44:17;;;;;;;29.80;5.80;;;;;;;;;;5037929;28;20045;-60
2023/11/09 03:46:43;;;;;;;32.65;5.32;;;;;;;;;;5039194;28;20687;-60
2023/11/09 03:49:12;;;;;;;28.67;5.43;;;;;;;;;;5029812;28;20125;-60
2023/11/09 03:51:38;;;;;;;26.45;5.95;;;;;;;;;;5028650;28;20112;-60
2023/11/09 03:54:04;;;;;;;32.78;5.57;;;;;;;;;;5032748;28;20420;-60
2023/11/09 03:56:31;;;;;;;38.55;6.30;;;;;;;;;;5028198;28;20426;-60
2023/11/09 03:58:57;;;;;;;29.58;6.35;;;;;;;;;;5040637;28;20092;-60
2023/11/09 04:01:23;;;;;;;32.63;5.30;;;;;;;;;;5028867;28;20049;-60
2023/11/09 04:03:50;;;;;;;28.85;6.30;;;;;;;;;;5041167;28;20568;-60
2023/11/09 04:06:17;;;;;;;32.05;5.88;;;;;;;;;;5029504;28;20126;-60
2023/11/09 04:08:46;;;;;;;29.83;5.05;;;;;;;;;;5033477;28;20045;-60
2023/11/09 04:11:13;;;;;;;30.73;5.57;;;;;;;;;;5018469;28;20501;-60
2023/11/09 04:13:39;;;;;;;26.88;6.70;;;;;;;;;;5032247;28;20041;-60
2023/11/09 04:16:06;;;;;;;40.13;5.20;;;;;;;;;;5030458;28;20095;-60
2023/11/09 04:18:33;;;;;;;33.17;6.78;;;;;;;;;;5029432;28;20132;-60
2023/11/09 04:20:59;;;;;;;37.58;5.13;;;;;;;;;;5037514;28;20462;-60
2023/11/09 04:23:25;;;;;;;30.55;6.03;;;;;;;;;;5033515;28;20040;-60
2023/11/09 04:25:52;;;;;;;27.60;4.53;;;;;;;;;;5043699;28;20095;-60
2023/11/09 04:28:18;;;;;;;30.17;5.38;;;;;;;;;;5035868;28;20462;-61
2023/11/09 04:30:45;;;;;;;28.45;5.32;;;;;;;;;;5051596;28;20037;-60
2023/11/09 04:33:12;;;;;;;33.75;4.93;;;;;;;;;;5060981;28;20083;-60
2023/11/09 04:35:42;;;;;;;33.10;5.07;;;;;;;;;;5053531;28;20041;-60
2023/11/09 04:38:14;;;;;;;46.85;6.32;;;;;;;;;;5051850;28;20109;-60
2023/11/09 04:40:43;;;;;;;32.60;5.43;;;;;;;;;;5049010;28;20376;-60
2023/11/09 04:43:11;;;;;;;41.78;5.35;;;;;;;;;;5053697;28;20056;-60
2023/11/09 04:45:42;;;;;;;25.45;5.18;;;;;;;;;;5043170;28;20041;-60
2023/11/09 04:48:19;;;;;;;30.83;5.00;;;;;;;;;;5057542;28;20088;-60
2023/11/09 04:50:51;;;;;;;33.22;4.70;;;;;;;;;;5054418;28;20119;-60
2023/11/09 04:53:29;;;;;;;32.03;5.00;;;;;;;;;;5040952;28;20128;-60
2023/11/09 04:56:04;;;;;;;25.67;4.20;;;;;;;;;;5058377;28;20504;-60
2023/11/09 04:58:44;;;;;;;36.30;5.43;;;;;;;;;;5051037;28;20413;-60
2023/11/09 05:06:52;;;;;;;24.30;3.50;;;;;;;;;;4960705;28;20058;-60
2023/11/09 05:09:19;;;;;;;29.63;3.92;;;;;;;;;;5052989;28;20045;-60
2023/11/09 05:11:46;;;;;;;30.88;3.67;;;;;;;;;;5056081;28;20477;-60
2023/11/09 05:14:13;;;;;;;46.80;5.05;;;;;;;;;;5058397;28;20043;-60
2023/11/09 05:16:39;;;;;;;43.47;4.80;;;;;;;;;;5052638;28;20370;-60
2023/11/09 05:19:05;;;;;;;34.08;4.90;;;;;;;;;;5047746;28;20036;-60
2023/11/09 05:21:32;;;;;;;25.20;3.83;;;;;;;;;;5048414;28;20089;-60
2023/11/09 05:23:58;;;;;;;35.08;4.22;;;;;;;;;;5049595;28;20194;-60
2023/11/09 05:26:25;;;;;;;37.08;5.68;;;;;;;;;;5050524;28;20033;-60
2023/11/09 05:28:53;;;;;;;42.67;5.55;;;;;;;;;;5062861;28;20052;-60
2023/11/09 05:31:19;;;;;;;37.20;5.35;;;;;;;;;;5050193;28;20128;-60
2023/11/09 05:33:46;;;;;;;41.80;5.43;;;;;;;;;;5057561;28;20194;-60
2023/11/09 05:36:13;;;;;;;37.22;4.80;;;;;;;;;;5049796;28;20479;-60
2023/11/09 05:38:39;;;;;;;35.00;5.47;;;;;;;;;;5058638;28;20045;-60
2023/11/09 05:41:06;;;;;;;36.40;4.65;;;;;;;;;;5047315;28;20043;-60
2023/11/09 05:43:33;;;;;;;41.05;5.00;;;;;;;;;;5065325;28;20460;-60
2023/11/09 05:45:59;;;;;;;29.20;4.50;;;;;;;;;;5043714;28;20553;-59
2023/11/09 05:48:25;;;;;;;37.88;4.97;;;;;;;;;;5049929;28;20191;-61
2023/11/09 05:50:51;;;;;;;36.55;4.63;;;;;;;;;;5049699;28;20174;-60
2023/11/09 05:53:21;;;;;;;33.75;4.78;;;;;;;;;;5047201;28;20041;-59
2023/11/09 05:55:47;;;;;;;33.30;4.85;;;;;;;;;;5046972;28;20052;-60
2023/11/09 05:58:13;;;;;;;36.47;4.15;;;;;;;;;;5028993;28;20049;-60
2023/11/09 06:00:40;;;;;;;40.53;6.00;;;;;;;;;;5045843;28;20497;-60
2023/11/09 06:03:06;;;;;;;36.38;4.80;;;;;;;;;;5046961;28;20319;-60
2023/11/09 06:05:32;;;;;;;30.75;5.10;;;;;;;;;;5049748;28;20041;-60
2023/11/09 06:07:58;;;;;;;33.53;4.88;;;;;;;;;;5049364;28;20036;-60
2023/11/09 06:10:25;;;;;;;43.38;4.75;;;;;;;;;;5048775;28;20045;-60
2023/11/09 06:12:52;;;;;;;44.53;5.53;;;;;;;;;;5048516;28;20056;-60
2023/11/09 06:15:18;;;;;;;31.98;4.95;;;;;;;;;;5045951;28;20068;-60
2023/11/09 06:17:44;;;;;;;38.25;5.60;;;;;;;;;;5050216;28;20473;-60
2023/11/09 06:20:14;;;;;;;33.47;5.13;;;;;;;;;;5052858;28;20041;-60
2023/11/09 06:22:41;;;;;;;35.35;5.63;;;;;;;;;;5052405;28;20416;-60
2023/11/09 06:25:08;;;;;;;45.17;6.30;;;;;;;;;;5052702;28;20044;-60
2023/11/09 06:27:34;;;;;;;29.65;5.18;;;;;;;;;;5049049;28;20040;-60
2023/11/09 06:30:03;;;;;;;35.90;4.88;;;;;;;;;;5051411;28;20052;-60
2023/11/09 06:32:30;;;;;;;33.00;4.47;;;;;;;;;;5053333;28;20236;-60
2023/11/09 06:34:59;;;;;;;41.50;5.13;;;;;;;;;;5051598;28;20049;-60
2023/11/09 06:37:26;;;;;;;35.22;5.15;;;;;;;;;;5051369;28;20041;-60
2023/11/09 06:39:53;;;;;;;36.05;4.63;;;;;;;;;;5047537;28;21099;-60
2023/11/09 06:42:19;;;;;;;32.58;4.40;;;;;;;;;;5050215;28;20041;-60
2023/11/09 06:44:45;;;;;;;29.48;4.10;;;;;;;;;;5051829;28;20047;-60
2023/11/09 06:47:12;;;;;;;39.00;4.53;;;;;;;;;;5053494;28;20059;-60
2023/11/09 06:49:38;;;;;;;31.88;4.57;;;;;;;;;;5053220;28;20045;-60
2023/11/09 06:52:05;;;;;;;26.67;3.97;;;;;;;;;;5049654;28;20098;-60
2023/11/09 06:54:34;;;;;;;44.17;6.20;;;;;;;;;;5048697;28;20044;-60
2023/11/09 06:57:02;;;;;;;41.08;5.50;;;;;;;;;;5049076;28;20081;-60
2023/11/09 06:59:28;;;;;;;28.92;5.97;;;;;;;;;;5047825;28;20083;-60
2023/11/09 07:01:57;;;;;;;40.05;6.30;;;;;;;;;;5051590;28;20106;-60
2023/11/09 07:04:23;;;;;;;52.28;8.07;;;;;;;;;;5052187;28;20118;-60
2023/11/09 07:06:50;;;;;;;37.17;6.50;;;;;;;;;;5051955;28;20115;-60
2023/11/09 07:09:18;;;;;;;39.00;6.93;;;;;;;;;;5051744;28;20056;-60
2023/11/09 07:11:47;;;;;;;46.45;6.32;;;;;;;;;;5051610;28;20051;-60
2023/11/09 07:14:15;;;;;;;34.90;5.93;;;;;;;;;;5051472;28;20549;-60
2023/11/09 07:16:41;;;;;;;52.35;6.13;;;;;;;;;;5049786;28;20048;-60
2023/11/09 07:19:09;;;;;;;28.75;5.75;;;;;;;;;;5048535;28;20045;-60
2023/11/09 07:21:35;;;;;;;35.08;7.43;;;;;;;;;;5050230;28;20129;-60
2023/11/09 07:24:04;;;;;;;28.30;6.45;;;;;;;;;;5046296;28;20056;-60
2023/11/09 07:26:30;;;;;;;31.60;5.95;;;;;;;;;;5051446;28;20599;-60
2023/11/09 07:28:57;;;;;;;30.83;6.07;;;;;;;;;;5032216;28;20048;-60
2023/11/09 07:31:24;;;;;;;30.55;6.55;;;;;;;;;;5050237;28;20048;-60
2023/11/09 07:33:50;;;;;;;26.80;5.45;;;;;;;;;;5051223;28;20049;-60
2023/11/09 07:36:19;;;;;;;32.53;6.18;;;;;;;;;;5052045;28;20175;-60
2023/11/09 07:38:45;;;;;;;40.42;6.43;;;;;;;;;;5050930;28;20065;-60
2023/11/09 07:41:11;;;;;;;35.13;6.20;;;;;;;;;;5050900;28;20048;-60
2023/11/09 07:43:38;;;;;;;34.53;6.63;;;;;;;;;;5051002;28;20064;-60
2023/11/09 07:46:04;;;;;;;39.75;6.10;;;;;;;;;;5050509;28;20098;-60
2023/11/09 07:48:30;;;;;;;30.40;5.28;;;;;;;;;;5049761;28;20131;-60
2023/11/09 07:50:56;;;;;;;22.27;5.88;;;;;;;;;;5060876;28;20038;-60
2023/11/09 07:53:23;;;;;;;29.80;5.05;;;;;;;;;;5053857;28;20132;-60
2023/11/09 07:55:49;;;;;;;40.00;7.15;;;;;;;;;;5071049;28;20056;-60
2023/11/09 07:58:15;;;;;;;29.02;5.38;;;;;;;;;;5071808;28;20397;-60
2023/11/09 08:00:41;;;;;;;33.80;5.47;;;;;;;;;;5064031;28;20405;-60
2023/11/09 08:03:11;;;;;;;22.83;5.20;;;;;;;;;;5058935;28;20123;-60
2023/11/09 08:05:41;;;;;;;28.77;6.78;;;;;;;;;;5071543;28;20105;-61
2023/11/09 08:08:14;;;;;;;31.00;5.88;;;;;;;;;;5070675;28;20059;-60
2023/11/09 08:10:43;;;;;;;36.80;7.28;;;;;;;;;;5071380;28;20051;-60
2023/11/09 08:13:10;;;;;;;83.22;9.27;;;;;;;;;;5067030;28;20075;-60
2023/11/09 08:15:37;;;;;;;103.63;8.93;;;;;;;;;;5064218;28;20045;-60
2023/11/09 08:18:04;;;;;;;116.30;10.65;;;;;;;;;;5055006;28;20439;-60
2023/11/09 08:20:30;;;;;;;93.70;9.77;;;;;;;;;;5071369;28;20040;-60
2023/11/09 08:22:57;;;;;;;100.75;9.80;;;;;;;;;;5066985;28;20041;-60
2023/11/09 08:25:23;;;;;;;110.25;10.88;;;;;;;;;;5071208;28;20037;-60
2023/11/09 08:27:53;;;;;;;118.78;11.48;;;;;;;;;;5067288;28;20638;-60
2023/11/09 08:30:20;;;;;;;125.10;11.43;;;;;;;;;;5061821;28;20518;-60
2023/11/09 08:32:47;;;;;;;62.65;9.88;;;;;;;;;;5025476;28;20380;-60
2023/11/09 08:35:17;;;;;;;55.30;10.20;;;;;;;;;;5071013;28;20045;-60
2023/11/09 08:37:44;;;;;;;53.17;9.52;;;;;;;;;;5070529;28;20052;-60
2023/11/09 08:40:20;;;;;;;47.00;9.85;;;;;;;;;;5070635;28;20098;-60
2023/11/09 08:42:48;;;;;;;49.47;10.52;;;;;;;;;;5057947;28;20127;-60
2023/11/09 08:45:17;;;;;;;37.55;10.20;;;;;;;;;;5059785;28;20044;-60
2023/11/09 08:47:48;;;;;;;38.83;9.63;;;;;;;;;;5062156;28;20100;-60
2023/11/09 08:50:16;;;;;;;35.83;7.63;;;;;;;;;;5055911;28;20080;-60
2023/11/09 08:52:45;;;;;;;29.40;7.65;;;;;;;;;;5066929;28;20095;-60
2023/11/09 08:55:13;;;;;;;34.15;7.32;;;;;;;;;;5067241;28;20052;-60
2023/11/09 08:57:39;;;;;;;41.55;8.25;;;;;;;;;;5051424;28;20048;-61
2023/11/09 09:00:06;;;;;;;31.73;7.55;;;;;;;;;;5064653;28;20048;-60
2023/11/09 09:02:34;;;;;;;26.23;6.28;;;;;;;;;;5038341;28;20044;-60
2023/11/09 09:05:03;;;;;;;35.20;6.45;;;;;;;;;;5044177;28;20455;-60
2023/11/09 09:07:29;;;;;;;33.33;6.90;;;;;;;;;;5055403;28;20439;-60
2023/11/09 09:09:56;;;;;;;29.25;6.65;;;;;;;;;;5049644;28;20500;-60
2023/11/09 09:12:22;;;;;;;31.35;6.68;;;;;;;;;;5035198;28;20044;-60
2023/11/09 09:14:51;;;;;;;38.20;6.90;;;;;;;;;;5061141;28;20052;-60
2023/11/09 09:17:17;;;;;;;32.63;7.53;;;;;;;;;;5060621;28;20044;-60
2023/11/09 09:19:44;;;;;;;25.15;6.68;;;;;;;;;;5046769;28;20063;-60
2023/11/09 09:22:11;;;;;;;33.55;8.23;;;;;;;;;;5068164;28;20420;-59
2023/11/09 09:24:40;;;;;;;30.23;6.57;;;;;;;;;;5070666;28;20415;-60
2023/11/09 09:27:06;;;;;;;36.67;6.88;;;;;;;;;;5066931;28;20386;-60
2023/11/09 09:29:35;;;;;;;23.83;6.88;;;;;;;;;;5055455;28;20099;-59
2023/11/09 09:32:04;;;;;;;26.95;6.20;;;;;;;;;;5062062;28;20127;-60
2023/11/09 09:34:30;;;;;;;30.05;6.68;;;;;;;;;;5066415;28;20066;-60
2023/11/09 09:37:00;;;;;;;20.45;5.80;;;;;;;;;;5064739;28;20485;-59
2023/11/09 09:39:27;;;;;;;23.88;5.65;;;;;;;;;;5044181;28;20048;-60
2023/11/09 09:41:58;;;;;;;27.08;6.28;;;;;;;;;;5055790;28;20068;-60
2023/11/09 09:44:26;;;;;;;24.10;5.30;;;;;;;;;;5054237;28;20055;-60
2023/11/09 09:46:55;;;;;;;23.75;6.28;;;;;;;;;;5069400;28;20151;-60
2023/11/09 09:49:25;;;;;;;28.77;5.95;;;;;;;;;;5059011;28;20421;-60
2023/11/09 09:51:52;;;;;;;26.88;5.55;;;;;;;;;;5049879;28;20037;-60
2023/11/09 09:54:18;;;;;;;27.63;4.95;;;;;;;;;;5073390;28;20062;-60
2023/11/09 09:56:47;;;;;;;22.60;4.53;;;;;;;;;;5073841;28;20105;-60
2023/11/09 09:59:14;;;;;;;20.13;5.90;;;;;;;;;;5070911;28;20040;-60
2023/11/09 10:01:49;;;;;;;29.52;5.20;;;;;;;;;;5056302;28;20052;-60
2023/11/09 10:04:16;;;;;;;23.05;4.30;;;;;;;;;;5056632;28;20056;-60
2023/11/09 10:06:42;;;;;;;20.48;3.95;;;;;;;;;;5073602;28;20124;-60
2023/11/09 10:09:08;;;;;;;30.42;5.03;;;;;;;;;;5072930;28;20036;-60
2023/11/09 10:11:38;;;;;;;24.80;4.68;;;;;;;;;;5068167;28;20040;-60
2023/11/09 10:14:05;;;;;;;22.67;4.15;;;;;;;;;;5073529;28;20467;-60
2023/11/09 10:16:32;;;;;;;29.85;4.97;;;;;;;;;;5064139;28;20542;-60
2023/11/09 10:19:05;;;;;;;22.23;4.18;;;;;;;;;;5073671;28;20138;-60
2023/11/09 10:21:31;;;;;;;20.00;4.18;;;;;;;;;;5066875;28;20041;-60
2023/11/09 10:24:01;;;;;;;19.40;3.92;;;;;;;;;;5073040;28;20526;-60
2023/11/09 10:26:56;;;;;;;18.65;3.15;;;;;;;;;;5073529;28;20120;-60
2023/11/09 10:29:25;;;;;;;22.15;4.68;;;;;;;;;;5049754;28;20086;-60
2023/11/09 10:31:53;;;;;;;19.95;3.72;;;;;;;;;;5065791;28;20126;-60
2023/11/09 10:34:19;;;;;;;18.02;3.47;;;;;;;;;;5069984;28;20109;-60
2023/11/09 10:36:45;;;;;;;17.58;3.95;;;;;;;;;;5072516;28;20052;-60
2023/11/09 10:39:16;;;;;;;24.10;3.75;;;;;;;;;;5073086;28;20036;-60
2023/11/09 10:41:44;;;;;;;23.90;4.18;;;;;;;;;;5067270;28;20040;-60
2023/11/09 10:44:10;;;;;;;20.27;3.20;;;;;;;;;;5056060;28;20048;-59
2023/11/09 10:46:38;;;;;;;23.80;3.40;;;;;;;;;;5061515;28;20488;-60
2023/11/09 10:49:05;;;;;;;21.10;3.90;;;;;;;;;;5063651;28;20081;-60
2023/11/09 10:51:33;;;;;;;17.63;3.08;;;;;;;;;;5054981;28;20053;-60
2023/11/09 10:54:04;;;;;;;18.02;3.30;;;;;;;;;;5054681;28;20044;-60
2023/11/09 10:56:31;;;;;;;22.08;6.32;;;;;;;;;;5058360;28;20076;-60
2023/11/09 10:58:58;;;;;;;20.50;4.00;;;;;;;;;;5068239;28;20041;-60
2023/11/09 11:01:29;;;;;;;19.02;2.80;;;;;;;;;;5046748;28;20068;-60
2023/11/09 11:03:57;;;;;;;15.55;3.00;;;;;;;;;;5064811;28;20148;-60
2023/11/09 11:06:37;;;;;;;19.58;3.35;;;;;;;;;;5052037;28;20041;-60
2023/11/09 11:09:08;;;;;;;24.40;2.85;;;;;;;;;;5045416;28;20048;-60
2023/11/09 11:11:36;;;;;;;17.05;2.75;;;;;;;;;;5047515;28;20504;-60
2023/11/09 11:14:07;;;;;;;16.73;3.17;;;;;;;;;;5072572;28;20041;-60
2023/11/09 11:16:33;;;;;;;17.38;2.95;;;;;;;;;;5058885;28;20125;-60
2023/11/09 11:19:18;;;;;;;20.48;3.28;;;;;;;;;;5054278;28;20116;-60
2023/11/09 11:22:00;;;;;;;15.35;3.28;;;;;;;;;;5064669;28;20130;-60
2023/11/09 11:24:43;;;;;;;11.40;3.45;;;;;;;;;;5070974;28;20081;-60
2023/11/09 11:27:11;;;;;;;13.20;2.60;;;;;;;;;;5056417;28;20049;-60
2023/11/09 11:29:38;;;;;;;17.83;3.58;;;;;;;;;;5040450;28;20278;-60
2023/11/09 11:32:07;;;;;;;20.73;3.17;;;;;;;;;;5060815;28;20123;-60
2023/11/09 11:34:54;;;;;;;17.92;3.85;;;;;;;;;;5066668;28;20512;-60
2023/11/09 11:37:38;;;;;;;13.45;2.75;;;;;;;;;;5029925;28;20050;-60
2023/11/09 11:40:08;;;;;;;21.08;3.58;;;;;;;;;;5044087;28;20396;-60
2023/11/09 11:42:34;;;;;;;14.90;2.90;;;;;;;;;;5061318;28;20044;-60
2023/11/09 11:45:01;;;;;;;23.02;3.90;;;;;;;;;;5058189;28;20083;-60
2023/11/09 11:47:28;;;;;;;15.23;3.10;;;;;;;;;;5071272;28;20044;-60
2023/11/09 11:49:57;;;;;;;18.35;3.85;;;;;;;;;;5054156;28;20122;-65
2023/11/09 11:52:24;;;;;;;19.33;3.42;;;;;;;;;;5048400;28;20124;-60
2023/11/09 11:54:53;;;;;;;18.73;3.80;;;;;;;;;;5052352;28;20365;-60
2023/11/09 11:57:24;;;;;;;17.30;3.25;;;;;;;;;;5044080;28;20052;-60
2023/11/09 12:00:04;;;;;;;19.98;4.13;;;;;;;;;;5066497;28;20068;-60
2023/11/09 12:02:30;;;;;;;16.10;3.20;;;;;;;;;;5044874;28;20076;-60
2023/11/09 12:04:57;;;;;;;18.48;3.33;;;;;;;;;;5046536;28;20397;-60
2023/11/09 12:07:26;;;;;;;18.33;3.60;;;;;;;;;;5070717;28;20484;-60
2023/11/09 12:09:55;;;;;;;16.10;2.78;;;;;;;;;;5071452;28;20056;-60
2023/11/09 12:12:26;;;;;;;21.13;4.20;;;;;;;;;;5065686;28;20140;-60
2023/11/09 12:14:54;;;;;;;13.65;2.47;;;;;;;;;;5051297;28;20413;-60
2023/11/09 12:17:23;;;;;;;15.57;2.70;;;;;;;;;;5070522;28;20056;-60
2023/11/09 12:19:51;;;;;;;22.35;3.58;;;;;;;;;;5048876;28;20058;-60
2023/11/09 12:22:17;;;;;;;23.67;3.25;;;;;;;;;;5064524;28;20097;-60
2023/11/09 12:24:45;;;;;;;14.93;2.70;;;;;;;;;;5057874;28;20048;-60
2023/11/09 12:27:11;;;;;;;15.50;3.00;;;;;;;;;;5064350;28;20487;-60
2023/11/09 12:29:38;;;;;;;17.35;3.53;;;;;;;;;;5052256;28;20124;-60
2023/11/09 12:32:06;;;;;;;25.05;3.33;;;;;;;;;;5071395;28;20032;-60
2023/11/09 12:34:35;;;;;;;13.93;2.83;;;;;;;;;;5055301;28;20036;-60
2023/11/09 12:37:02;;;;;;;11.23;2.75;;;;;;;;;;5070349;28;20051;-60
2023/11/09 12:39:28;;;;;;;13.77;2.63;;;;;;;;;;5071386;28;20045;-60
2023/11/09 12:41:58;;;;;;;16.05;3.55;;;;;;;;;;5065601;28;20053;-61
2023/11/09 12:44:26;;;;;;;15.93;3.45;;;;;;;;;;5050514;28;20562;-60
2023/11/09 12:47:12;;;;;;;19.00;2.90;;;;;;;;;;5050582;28;20092;-60
2023/11/09 12:49:40;;;;;;;16.40;3.42;;;;;;;;;;5032535;28;20135;-60
2023/11/09 12:52:09;;;;;;;14.93;2.88;;;;;;;;;;5042279;28;20040;-59
2023/11/09 12:54:35;;;;;;;18.20;3.40;;;;;;;;;;5061538;28;20052;-60
2023/11/09 12:57:05;;;;;;;21.25;3.63;;;;;;;;;;5069491;28;20047;-60
2023/11/09 12:59:31;;;;;;;14.27;2.85;;;;;;;;;;5070621;28;20473;-60
2023/11/09 13:02:14;;;;;;;15.00;2.58;;;;;;;;;;5054978;28;20048;-60
2023/11/09 13:04:45;;;;;;;18.20;4.00;;;;;;;;;;5059540;28;20045;-59
2023/11/09 13:07:13;;;;;;;13.02;2.42;;;;;;;;;;5065267;28;20414;-60
2023/11/09 13:09:39;;;;;;;22.52;3.25;;;;;;;;;;5056887;28;20045;-59
2023/11/09 13:15:10;;;;;;;12.25;3.17;;;;;;;;;;5052028;28;20098;-59
2023/11/09 13:17:50;;;;;;;14.63;2.38;;;;;;;;;;5068838;28;20036;-60
2023/11/09 13:20:36;;;;;;;18.38;3.05;;;;;;;;;;5067653;28;20037;-59
2023/11/09 13:23:07;;;;;;;16.45;2.80;;;;;;;;;;5046042;28;20105;-60
2023/11/09 13:25:34;;;;;;;15.27;2.83;;;;;;;;;;5054011;28;20049;-59
2023/11/09 13:28:01;;;;;;;16.42;3.10;;;;;;;;;;5064321;28;20041;-59
2023/11/09 13:30:28;;;;;;;19.80;3.28;;;;;;;;;;5068225;28;20355;-60
2023/11/09 13:33:00;;;;;;;16.13;3.58;;;;;;;;;;5069461;28;20051;-59
2023/11/09 13:35:32;;;;;;;19.65;3.47;;;;;;;;;;5074611;28;20045;-60
2023/11/09 13:38:06;;;;;;;19.52;3.85;;;;;;;;;;5064035;28;20087;-59
2023/11/09 13:40:35;;;;;;;15.80;3.28;;;;;;;;;;5073650;28;20052;-59
2023/11/09 13:43:11;;;;;;;15.85;2.95;;;;;;;;;;5074117;28;20119;-60
2023/11/09 13:45:46;;;;;;;17.17;3.47;;;;;;;;;;5073663;28;20040;-59
2023/11/09 13:48:23;;;;;;;23.85;3.10;;;;;;;;;;5062387;28;20041;-59
2023/11/09 13:50:50;;;;;;;14.82;3.33;;;;;;;;;;5062616;28;20412;-60
2023/11/09 13:53:29;;;;;;;17.10;3.67;;;;;;;;;;5066270;28;20047;-60
2023/11/09 13:58:47;;;;;;;22.00;4.88;;;;;;;;;;5040706;28;20036;-59
2023/11/09 14:01:25;;;;;;;26.73;4.68;;;;;;;;;;5059763;28;20041;-59
2023/11/09 14:03:51;;;;;;;21.77;4.47;;;;;;;;;;5062573;28;20056;-59
2023/11/09 14:06:21;;;;;;;17.17;3.95;;;;;;;;;;5064779;28;20033;-60
2023/11/09 14:08:47;;;;;;;16.45;3.80;;;;;;;;;;5069417;28;20052;-60
2023/11/09 14:11:13;;;;;;;21.88;3.30;;;;;;;;;;5055853;28;20472;-60
2023/11/09 14:13:46;;;;;;;17.40;2.97;;;;;;;;;;5072910;28;20072;-59
2023/11/09 14:16:19;;;;;;;20.50;3.42;;;;;;;;;;5060097;28;20033;-60
2023/11/09 14:19:00;;;;;;;13.90;3.08;;;;;;;;;;5044017;28;20041;-61
2023/11/09 14:21:35;;;;;;;16.45;3.78;;;;;;;;;;5072914;28;20099;-61
2023/11/09 14:24:04;;;;;;;14.93;4.32;;;;;;;;;;5047088;28;20045;-61
2023/11/09 14:26:31;;;;;;;17.88;3.20;;;;;;;;;;5055566;28;20037;-61
2023/11/09 14:29:08;;;;;;;17.52;3.53;;;;;;;;;;5055698;28;20586;-60
2023/11/09 14:31:38;;;;;;;14.65;3.35;;;;;;;;;;5073586;28;20048;-60
2023/11/09 14:34:12;;;;;;;20.30;3.70;;;;;;;;;;5056026;28;20474;-60
2023/11/09 14:36:42;;;;;;;19.90;3.42;;;;;;;;;;5057959;28;20044;-60
2023/11/09 14:42:09;;;;;;;25.30;4.28;;;;;;;;;;5008948;28;20051;-60
2023/11/09 14:44:40;;;;;;;22.67;3.65;;;;;;;;;;5036447;28;20076;-60
2023/11/09 14:47:06;;;;;;;21.83;3.85;;;;;;;;;;5065142;28;20047;-60
2023/11/09 14:49:35;;;;;;;19.25;4.03;;;;;;;;;;5054623;28;20552;-65